createdAt,value
2019-01-30T00:04:41.918Z,84.20
2019-01-30T00:09:41.561Z,84.20
2019-01-30T00:14:41.473Z,84.20
2019-01-30T00:19:41.205Z,84.10
2019-01-30T00:24:40.831Z,84.20
2019-01-30T00:29:40.654Z,84.50
2019-01-30T00:34:40.466Z,84.30
2019-01-30T00:39:40.111Z,84.10
2019-01-30T00:44:39.774Z,84.10
2019-01-30T00:49:39.491Z,84.00
2019-01-30T00:54:39.149Z,83.90
2019-01-30T00:59:39.011Z,84.50
2019-01-30T01:04:38.839Z,84.50
2019-01-30T01:09:38.507Z,83.80
2019-01-30T01:14:38.151Z,83.90
2019-01-30T01:19:38.026Z,83.90
2019-01-30T01:24:37.670Z,83.80
2019-01-30T01:29:37.382Z,84.30
2019-01-30T01:34:37.278Z,83.90
2019-01-30T01:39:37.020Z,83.70
2019-01-30T01:44:36.899Z,83.50
2019-01-30T01:49:37.550Z,83.70
2019-01-30T01:54:37.215Z,83.70
2019-01-30T01:59:37.083Z,83.50
2019-01-30T02:04:36.729Z,83.30
2019-01-30T02:09:36.367Z,83.40
2019-01-30T02:14:36.259Z,83.50
2019-01-30T02:19:35.979Z,83.50
2019-01-30T02:24:35.622Z,83.60
2019-01-30T02:29:35.266Z,83.40
2019-01-30T02:34:34.912Z,83.30
2019-01-30T02:39:34.556Z,83.20
2019-01-30T02:44:34.203Z,82.80
2019-01-30T02:49:34.098Z,82.90
2019-01-30T02:54:33.771Z,83.30
2019-01-30T02:59:33.415Z,83.50
2019-01-30T03:04:33.055Z,83.80
2019-01-30T03:09:32.698Z,83.50
2019-01-30T03:14:32.343Z,83.60
2019-01-30T03:19:31.983Z,83.50
2019-01-30T03:24:31.631Z,83.20
2019-01-30T03:29:31.529Z,83.50
2019-01-30T03:34:31.138Z,83.10
2019-01-30T03:39:30.794Z,83.10
2019-01-30T03:44:30.456Z,83.00
2019-01-30T03:49:30.361Z,82.60
2019-01-30T03:54:30.011Z,82.30
2019-01-30T03:59:29.923Z,82.50
2019-01-30T04:04:29.606Z,83.30
2019-01-30T04:09:29.258Z,83.30
2019-01-30T04:14:28.904Z,83.00
2019-01-30T04:19:28.537Z,82.80
2019-01-30T04:24:28.287Z,82.70
2019-01-30T04:29:28.176Z,82.30
2019-01-30T04:34:27.824Z,82.20
2019-01-30T04:39:27.725Z,83.20
2019-01-30T04:44:27.359Z,83.20
2019-01-30T04:49:27.010Z,83.10
2019-01-30T04:54:26.669Z,83.10
2019-01-30T04:59:26.336Z,83.30
2019-01-30T05:04:26.019Z,83.00
2019-01-30T05:09:25.699Z,83.00
2019-01-30T05:14:25.559Z,83.10
2019-01-30T05:19:25.216Z,83.10
2019-01-30T05:24:25.122Z,83.00
2019-01-30T05:29:25.000Z,82.90
2019-01-30T05:34:24.667Z,83.10
2019-01-30T05:39:24.553Z,82.90
2019-01-30T05:44:24.194Z,82.90
2019-01-30T05:49:23.852Z,82.90
2019-01-30T05:54:23.496Z,82.90
2019-01-30T05:59:23.131Z,82.50
2019-01-30T06:04:22.799Z,82.90
2019-01-30T06:09:22.667Z,82.70
2019-01-30T06:14:22.571Z,82.80
2019-01-30T06:19:22.215Z,82.80
2019-01-30T06:24:21.871Z,83.00
2019-01-30T06:29:21.528Z,83.00
2019-01-30T06:34:21.167Z,82.70
2019-01-30T06:39:21.044Z,82.60
2019-01-30T06:44:20.686Z,83.00
2019-01-30T06:49:20.323Z,82.30
2019-01-30T06:54:19.964Z,83.00
2019-01-30T06:59:19.603Z,83.30
2019-01-30T07:04:19.250Z,83.40
2019-01-30T07:09:19.212Z,83.50
2019-01-30T07:14:18.840Z,82.90
2019-01-30T07:19:18.482Z,83.80
2019-01-30T07:24:18.134Z,83.00
2019-01-30T07:29:17.779Z,83.90
2019-01-30T07:34:17.486Z,83.80
2019-01-30T07:39:17.455Z,83.40
2019-01-30T07:44:17.120Z,83.20
2019-01-30T07:49:17.107Z,83.60
2019-01-30T07:54:16.765Z,83.00
2019-01-30T07:59:16.405Z,84.30
2019-01-30T08:04:16.315Z,84.20
2019-01-30T08:09:16.219Z,84.50
2019-01-30T08:14:15.952Z,84.80
2019-01-30T08:19:15.611Z,84.50
2019-01-30T08:24:15.544Z,85.00
2019-01-30T08:29:15.215Z,85.10
2019-01-30T08:34:14.934Z,84.90
2019-01-30T08:39:14.558Z,85.10
2019-01-30T08:44:14.522Z,85.50
2019-01-30T08:49:14.174Z,84.80
2019-01-30T08:54:13.823Z,84.70
2019-01-30T08:59:13.555Z,85.50
2019-01-30T09:04:13.275Z,85.50
2019-01-30T09:09:12.930Z,85.10
2019-01-30T09:14:12.820Z,86.30
2019-01-30T09:19:12.446Z,86.00
2019-01-30T09:24:12.106Z,85.00
2019-01-30T09:29:11.738Z,86.20
2019-01-30T09:34:11.398Z,85.90
2019-01-30T09:39:11.260Z,86.20
2019-01-30T09:44:10.990Z,85.80
2019-01-30T09:49:10.735Z,86.30
2019-01-30T09:54:10.431Z,87.00
2019-01-30T09:59:10.163Z,86.90
2019-01-30T10:04:09.790Z,86.40
2019-01-30T10:09:10.220Z,87.20
2019-01-30T10:14:10.219Z,86.90
2019-01-30T10:19:09.875Z,87.00
2019-01-30T10:24:10.043Z,87.00
2019-01-30T10:29:09.799Z,86.60
2019-01-30T10:34:09.447Z,86.90
2019-01-30T10:39:10.683Z,87.30
2019-01-30T10:44:10.661Z,87.40
2019-01-30T10:49:10.641Z,87.30
2019-01-30T10:54:10.305Z,86.80
2019-01-30T10:59:10.103Z,86.70
2019-01-30T11:04:10.787Z,86.90
2019-01-30T11:09:11.604Z,86.80
2019-01-30T11:14:11.229Z,87.50
2019-01-30T11:19:11.031Z,86.50
2019-01-30T11:24:10.744Z,87.50
2019-01-30T11:29:10.406Z,87.20
2019-01-30T11:34:10.128Z,87.80
2019-01-30T11:39:10.071Z,87.40
2019-01-30T11:44:09.695Z,87.10
2019-01-30T11:49:09.354Z,86.60
2019-01-30T11:54:09.983Z,86.90
2019-01-30T11:59:09.663Z,86.60
2019-01-30T12:04:17.812Z,86.90
2019-01-30T12:09:10.796Z,86.10
2019-01-30T12:14:10.455Z,86.30
2019-01-30T12:19:10.083Z,86.70
2019-01-30T12:24:09.735Z,87.50
2019-01-30T12:29:09.459Z,87.00
2019-01-30T12:34:09.092Z,85.70
2019-01-30T12:39:10.224Z,86.70
2019-01-30T12:44:10.042Z,87.30
2019-01-30T12:49:09.998Z,86.50
2019-01-30T12:54:09.656Z,87.30
2019-01-30T12:59:09.635Z,87.10
2019-01-30T13:04:09.279Z,86.80
2019-01-30T13:09:09.957Z,87.20
2019-01-30T13:14:09.669Z,86.80
2019-01-30T13:19:09.307Z,85.50
2019-01-30T13:24:09.220Z,84.80
2019-01-30T13:29:08.956Z,84.50
2019-01-30T13:34:08.751Z,84.80
2019-01-30T13:39:08.947Z,85.10
2019-01-30T13:44:08.658Z,84.10
2019-01-30T13:49:08.411Z,82.90
2019-01-30T13:54:08.303Z,83.50
2019-01-30T13:59:08.121Z,84.40
2019-01-30T14:04:07.993Z,84.80
2019-01-30T14:09:09.495Z,84.10
2019-01-30T14:14:09.446Z,83.90
2019-01-30T14:19:09.412Z,84.20
2019-01-30T14:24:09.053Z,82.60
2019-01-30T14:29:08.791Z,83.70
2019-01-30T14:34:08.423Z,82.90
2019-01-30T14:39:09.245Z,82.80
2019-01-30T14:44:08.954Z,82.00
2019-01-30T14:49:08.607Z,82.40
2019-01-30T14:54:08.270Z,81.80
2019-01-30T14:59:07.903Z,82.40
2019-01-30T15:04:07.645Z,83.00
2019-01-30T15:09:09.630Z,82.60
2019-01-30T15:14:09.499Z,82.00
2019-01-30T15:19:09.294Z,81.80
2019-01-30T15:24:08.935Z,81.90
2019-01-30T15:29:08.590Z,82.00
2019-01-30T15:34:08.359Z,82.20
2019-01-30T15:39:09.494Z,81.80
2019-01-30T15:44:09.483Z,81.00
2019-01-30T15:49:09.210Z,81.60
2019-01-30T15:54:09.033Z,83.10
2019-01-30T15:59:10.535Z,81.80
2019-01-30T16:04:10.491Z,80.40
2019-01-30T16:09:10.556Z,82.00
2019-01-30T16:14:11.827Z,81.30
2019-01-30T16:19:11.479Z,82.10
2019-01-30T16:24:11.207Z,82.50
2019-01-30T16:29:10.892Z,82.20
2019-01-30T16:34:10.867Z,82.40
2019-01-30T16:39:10.788Z,81.60
2019-01-30T16:44:10.640Z,81.40
2019-01-30T16:49:10.604Z,81.90
2019-01-30T16:54:10.500Z,82.20
2019-01-30T16:59:10.171Z,81.60
2019-01-30T17:04:09.819Z,81.80
2019-01-30T17:09:09.819Z,81.90
2019-01-30T17:14:09.540Z,82.10
2019-01-30T17:19:09.613Z,81.00
2019-01-30T17:24:09.302Z,82.30
2019-01-30T17:29:08.934Z,82.10
2019-01-30T17:34:08.667Z,82.30
2019-01-30T17:39:10.370Z,80.80
2019-01-30T17:44:12.692Z,81.80
2019-01-30T17:49:11.723Z,81.70
2019-01-30T17:54:11.515Z,82.50
2019-01-30T17:59:11.204Z,81.70
2019-01-30T18:04:11.261Z,82.50
2019-01-30T18:09:11.054Z,82.20
2019-01-30T18:14:10.790Z,82.20
2019-01-30T18:19:10.434Z,83.20
2019-01-30T18:24:10.098Z,82.70
2019-01-30T18:29:09.759Z,83.80
2019-01-30T18:34:09.725Z,83.00
2019-01-30T18:39:09.916Z,82.70
2019-01-30T18:44:09.739Z,83.30
2019-01-30T18:49:10.667Z,83.80
2019-01-30T18:54:10.327Z,83.50
2019-01-30T18:59:10.004Z,84.40
2019-01-30T19:04:09.751Z,84.20
2019-01-30T19:09:11.099Z,84.20
2019-01-30T19:14:10.776Z,83.80
2019-01-30T19:19:10.776Z,83.80
2019-01-30T19:24:10.532Z,84.90
2019-01-30T19:29:10.183Z,84.10
2019-01-30T19:34:09.854Z,84.00
2019-01-30T19:39:09.957Z,83.80
2019-01-30T19:44:11.373Z,82.90
2019-01-30T19:49:11.342Z,84.30
2019-01-30T19:54:11.226Z,84.10
2019-01-30T19:59:17.342Z,84.90
2019-01-30T20:04:12.319Z,84.70
2019-01-30T20:09:21.512Z,84.10
2019-01-30T20:14:21.179Z,85.40
2019-01-30T20:19:20.931Z,85.40
2019-01-30T20:24:20.922Z,85.30
2019-01-30T20:29:20.618Z,84.20
2019-01-30T20:34:20.373Z,85.30
2019-01-30T20:39:20.056Z,84.70
2019-01-30T20:44:19.715Z,85.20
2019-01-30T20:49:19.368Z,84.60
2019-01-30T20:54:19.431Z,84.70
2019-01-30T20:59:19.155Z,84.90
2019-01-30T21:04:18.931Z,83.20
2019-01-30T21:09:19.577Z,85.30
2019-01-30T21:14:19.587Z,84.30
2019-01-30T21:19:19.444Z,85.40
2019-01-30T21:24:19.399Z,85.40
2019-01-30T21:29:19.098Z,85.50
2019-01-30T21:34:19.144Z,85.10
2019-01-30T21:39:18.796Z,84.70
2019-01-30T21:44:18.588Z,84.50
2019-01-30T21:49:18.259Z,84.50
2019-01-30T21:54:17.911Z,84.70
2019-01-30T21:59:17.640Z,84.70
2019-01-30T22:04:17.308Z,84.40
2019-01-30T22:09:16.972Z,84.30
2019-01-30T22:14:16.858Z,84.80
2019-01-30T22:19:44.695Z,84.80
2019-01-30T22:24:44.590Z,84.10
2019-01-30T22:29:44.315Z,84.80
2019-01-30T22:34:43.987Z,84.00
2019-01-30T22:39:44.899Z,83.90
2019-01-30T22:44:44.543Z,84.20
2019-01-30T22:49:44.202Z,84.20
2019-01-30T22:54:43.864Z,83.90
2019-01-30T22:59:43.510Z,83.80
2019-01-30T23:05:04.104Z,84.20
2019-01-30T23:10:39.411Z,84.00
2019-01-30T23:16:07.969Z,83.10
2019-01-30T23:21:13.031Z,83.80
2019-01-30T23:26:19.263Z,83.60
2019-01-30T23:31:36.755Z,83.90
2019-01-30T23:37:06.540Z,83.50
2019-01-30T23:42:33.071Z,83.90
2019-01-30T23:48:01.090Z,83.80
2019-01-30T23:53:34.103Z,83.40
2019-01-30T23:58:53.664Z,83.50
